Time;durP1;ratioP1;P1;durP2;ratioP2;P2;SDS_P1;SDS_P2;PMS_P1;PMS_P2;Temp;Humidity;BMP_temperature;BMP_pressure;BME280_temperature;BME280_humidity;BME280_pressure;Samples;Min_cycle;Max_cycle;Signal;HPM_P1;HPM_P2
2023/04/19 00:00:34;;;;;;;;;;;7.40;99.90;;;;;;5095955;28;20015;-70
2023/04/19 00:03:00;;;;;;;;;;;7.10;99.90;;;;;;5094721;28;19955;-69
2023/04/19 00:05:27;;;;;;;;;;;7.10;99.90;;;;;;5113752;28;19931;-70
2023/04/19 00:07:52;;;;;;;;;;;7.00;99.90;;;;;;5112857;28;19923;-70
2023/04/19 00:10:18;;;;;;;;;;;8.30;99.90;;;;;;5094487;28;19931;-70
2023/04/19 00:12:43;;;;;;;;;;;7.00;99.90;;;;;;5095540;28;19923;-69
2023/04/19 00:15:09;;;;;;;;;;;7.00;99.90;;;;;;5113016;28;20396;-70
2023/04/19 00:17:35;;;;;;;;;;;6.90;99.90;;;;;;5113499;28;19927;-69
2023/04/19 00:20:00;;;;;;;;;;;6.90;99.90;;;;;;5094896;28;19924;-69
2023/04/19 00:22:26;;;;;;;;;;;6.90;99.90;;;;;;5112178;28;20014;-70
2023/04/19 00:24:52;;;;;;;;;;;6.90;99.90;;;;;;5113151;28;19924;-70
2023/04/19 00:27:17;;;;;;;;;;;7.00;99.90;;;;;;5095131;28;20012;-70
2023/04/19 00:29:43;;;;;;;;;;;6.90;99.90;;;;;;5094756;28;19924;-70
2023/04/19 00:32:08;;;;;;;;;;;6.90;99.90;;;;;;5113376;28;19931;-69
2023/04/19 00:34:34;;;;;;;;;;;7.20;99.90;;;;;;5095823;28;20321;-70
2023/04/19 00:36:59;;;;;;;;;;;8.00;99.90;;;;;;5111727;28;20371;-70
2023/04/19 00:39:25;;;;;;;;;;;6.90;99.90;;;;;;5095116;28;19977;-69
2023/04/19 00:41:51;;;;;;;;;;;6.80;99.90;;;;;;5112832;28;19927;-70
2023/04/19 00:44:17;;;;;;;;;;;6.80;99.90;;;;;;5112799;28;19962;-70
2023/04/19 00:46:43;;;;;;;;;;;6.90;99.90;;;;;;5094714;28;20509;-70
2023/04/19 00:49:08;;;;;;;;;;;6.80;99.90;;;;;;5112876;28;19924;-70
2023/04/19 00:51:34;;;;;;;;;;;6.80;99.90;;;;;;5112625;28;19934;-70
2023/04/19 00:54:01;;;;;;;;;;;7.30;99.90;;;;;;5112882;28;19924;-70
2023/04/19 00:56:28;;;;;;;;;;;6.80;99.90;;;;;;5094892;28;20282;-70
2023/04/19 00:58:53;;;;;;;;;;;6.70;99.90;;;;;;5093128;28;19977;-70
2023/04/19 01:01:19;;;;;;;;;;;6.70;99.90;;;;;;5113431;28;19924;-69
2023/04/19 01:03:47;;;;;;;;;;;6.70;99.90;;;;;;5113067;28;19927;-70
2023/04/19 01:06:13;;;;;;;;;;;6.70;99.90;;;;;;5093790;28;19931;-69
2023/04/19 01:08:39;;;;;;;;;;;6.70;99.90;;;;;;5112476;28;19924;-70
2023/04/19 01:11:06;;;;;;;;;;;6.60;99.90;;;;;;5094496;28;19969;-69
2023/04/19 01:13:32;;;;;;;;;;;6.70;99.90;;;;;;5112308;28;19949;-69
2023/04/19 01:15:58;;;;;;;;;;;6.60;99.90;;;;;;5094710;28;19923;-69
2023/04/19 01:18:24;;;;;;;;;;;6.60;99.90;;;;;;5094586;28;19923;-69
2023/04/19 01:20:50;;;;;;;;;;;6.60;99.90;;;;;;5094340;28;19924;-69
2023/04/19 01:23:16;;;;;;;;;;;6.50;99.90;;;;;;5094332;28;20351;-70
2023/04/19 01:25:41;;;;;;;;;;;6.70;99.90;;;;;;5093882;28;19963;-69
2023/04/19 01:28:07;;;;;;;;;;;6.70;99.90;;;;;;5094470;28;19992;-69
2023/04/19 01:30:33;;;;;;;;;;;6.70;99.90;;;;;;5113005;28;20018;-69
2023/04/19 01:32:58;;;;;;;;;;;6.90;99.90;;;;;;5093232;28;19974;-70
2023/04/19 01:35:24;;;;;;;;;;;6.50;99.90;;;;;;5097714;28;20340;-69
2023/04/19 01:37:52;;;;;;;;;;;6.50;99.90;;;;;;5116293;28;20283;-69
2023/04/19 01:40:17;;;;;;;;;;;6.50;99.90;;;;;;5115628;28;20010;-70
2023/04/19 01:42:43;;;;;;;;;;;6.50;99.90;;;;;;5116260;28;19959;-69
2023/04/19 01:45:09;;;;;;;;;;;6.50;99.90;;;;;;5098218;28;19931;-69
2023/04/19 01:47:34;;;;;;;;;;;6.50;99.90;;;;;;5097193;28;20386;-70
2023/04/19 01:50:00;;;;;;;;;;;6.90;99.90;;;;;;5116259;28;20023;-69
2023/04/19 01:52:25;;;;;;;;;;;6.60;99.90;;;;;;5097473;28;19924;-69
2023/04/19 01:54:51;;;;;;;;;;;6.60;99.90;;;;;;5115057;28;20010;-70
2023/04/19 01:57:17;;;;;;;;;;;6.60;99.90;;;;;;5097960;28;19924;-69
2023/04/19 01:59:43;;;;;;;;;;;6.50;99.90;;;;;;5097570;28;19923;-69
2023/04/19 02:02:08;;;;;;;;;;;6.50;99.90;;;;;;5096431;28;19968;-69
2023/04/19 02:04:37;;;;;;;;;;;6.50;99.90;;;;;;5097644;28;20333;-70
2023/04/19 02:07:02;;;;;;;;;;;6.40;99.90;;;;;;5115645;28;19924;-69
2023/04/19 02:09:28;;;;;;;;;;;6.40;99.90;;;;;;5115126;28;19923;-69
2023/04/19 02:11:53;;;;;;;;;;;6.50;99.90;;;;;;5115269;28;20401;-69
2023/04/19 02:14:19;;;;;;;;;;;6.30;99.90;;;;;;5115637;28;19924;-69
2023/04/19 02:16:44;;;;;;;;;;;6.40;99.90;;;;;;5115196;28;19981;-69
2023/04/19 02:19:10;;;;;;;;;;;6.20;99.90;;;;;;5097018;28;19928;-69
2023/04/19 02:21:35;;;;;;;;;;;6.20;99.90;;;;;;5096936;28;19992;-69
2023/04/19 02:24:01;;;;;;;;;;;6.30;99.90;;;;;;5096440;28;20057;-69
2023/04/19 02:26:26;;;;;;;;;;;6.30;99.90;;;;;;5097390;28;20367;-69
2023/04/19 02:28:52;;;;;;;;;;;6.30;99.90;;;;;;5114589;28;19930;-70
2023/04/19 02:31:17;;;;;;;;;;;6.80;99.90;;;;;;5115547;28;19924;-69
2023/04/19 02:33:45;;;;;;;;;;;6.40;99.90;;;;;;5115428;28;20283;-69
2023/04/19 02:36:11;;;;;;;;;;;6.40;99.90;;;;;;5095753;28;19924;-69
2023/04/19 02:38:36;;;;;;;;;;;6.40;99.90;;;;;;5115247;28;19930;-69
2023/04/19 02:41:03;;;;;;;;;;;6.60;99.90;;;;;;5115252;28;19945;-69
2023/04/19 02:43:31;;;;;;;;;;;6.40;99.90;;;;;;5114170;28;20432;-69
2023/04/19 02:45:57;;;;;;;;;;;6.40;99.90;;;;;;5114325;28;19923;-67
2023/04/19 02:48:22;;;;;;;;;;;6.50;99.90;;;;;;5096409;28;19974;-67
2023/04/19 02:50:48;;;;;;;;;;;6.40;99.90;;;;;;5096124;28;19969;-67
2023/04/19 02:53:13;;;;;;;;;;;6.30;99.90;;;;;;5096744;28;19947;-68
2023/04/19 02:55:39;;;;;;;;;;;6.30;99.90;;;;;;5096454;28;19977;-67
2023/04/19 02:58:05;;;;;;;;;;;6.30;99.90;;;;;;5094950;28;20030;-67
2023/04/19 03:00:30;;;;;;;;;;;6.60;99.90;;;;;;5096537;28;19931;-67
2023/04/19 03:02:56;;;;;;;;;;;6.30;99.90;;;;;;5114532;28;20007;-68
2023/04/19 03:05:22;;;;;;;;;;;6.30;99.90;;;;;;5094628;28;20374;-68
2023/04/19 03:07:47;;;;;;;;;;;6.30;99.90;;;;;;5114716;28;19935;-68
2023/04/19 03:10:13;;;;;;;;;;;6.30;99.90;;;;;;5096020;28;19924;-68
2023/04/19 03:12:38;;;;;;;;;;;6.20;99.90;;;;;;5095598;28;20292;-67
2023/04/19 03:15:05;;;;;;;;;;;6.20;99.90;;;;;;5114133;28;19935;-68
2023/04/19 03:17:30;;;;;;;;;;;6.20;99.90;;;;;;5114172;28;20036;-68
2023/04/19 03:19:56;;;;;;;;;;;6.20;99.90;;;;;;5094508;28;20399;-68
2023/04/19 03:22:21;;;;;;;;;;;6.50;99.90;;;;;;5096264;28;19947;-67
2023/04/19 03:24:47;;;;;;;;;;;6.10;99.90;;;;;;5096026;28;19930;-67
2023/04/19 03:27:12;;;;;;;;;;;6.10;99.90;;;;;;5095152;28;19923;-67
2023/04/19 03:29:38;;;;;;;;;;;6.60;99.90;;;;;;5096209;28;19972;-68
2023/04/19 03:32:04;;;;;;;;;;;6.00;99.90;;;;;;5095234;28;19924;-67
2023/04/19 03:34:29;;;;;;;;;;;6.00;99.90;;;;;;5095633;28;19924;-68
2023/04/19 03:36:55;;;;;;;;;;;6.00;99.90;;;;;;5095631;28;20278;-68
2023/04/19 03:39:20;;;;;;;;;;;6.00;99.90;;;;;;5113430;28;19924;-68
2023/04/19 03:41:46;;;;;;;;;;;5.90;99.90;;;;;;5114212;28;20293;-67
2023/04/19 03:44:11;;;;;;;;;;;5.80;99.90;;;;;;5095810;28;20030;-68
2023/04/19 03:46:37;;;;;;;;;;;5.80;99.90;;;;;;5094886;28;20350;-67
2023/04/19 03:49:02;;;;;;;;;;;6.10;99.90;;;;;;5113681;28;19928;-67
2023/04/19 03:51:28;;;;;;;;;;;6.10;99.90;;;;;;5113266;28;19924;-67
2023/04/19 03:53:53;;;;;;;;;;;5.70;99.90;;;;;;5112826;28;19967;-67
2023/04/19 03:56:19;;;;;;;;;;;5.70;99.90;;;;;;5113047;28;20020;-67
2023/04/19 03:58:45;;;;;;;;;;;5.60;99.90;;;;;;5095721;28;20127;-67
2023/04/19 04:01:20;;;;;;;;;;;5.60;99.90;;;;;;5094289;28;19927;-67
2023/04/19 04:03:46;;;;;;;;;;;5.60;99.90;;;;;;5113408;28;20421;-67
2023/04/19 04:06:11;;;;;;;;;;;5.50;99.90;;;;;;5094594;28;19924;-67
2023/04/19 04:08:37;;;;;;;;;;;5.80;99.90;;;;;;5094598;28;20290;-67
2023/04/19 04:11:02;;;;;;;;;;;5.40;99.90;;;;;;5095364;28;19975;-67
2023/04/19 04:13:28;;;;;;;;;;;5.40;99.90;;;;;;5113628;28;19955;-69
2023/04/19 04:15:56;;;;;;;;;;;5.40;99.90;;;;;;5094164;28;19949;-69
2023/04/19 04:18:22;;;;;;;;;;;5.30;99.90;;;;;;5094982;28;19934;-69
2023/04/19 04:20:47;;;;;;;;;;;5.30;99.90;;;;;;5113090;28;20213;-69
2023/04/19 04:23:13;;;;;;;;;;;5.30;99.90;;;;;;5112346;28;19931;-69
2023/04/19 04:25:38;;;;;;;;;;;5.50;99.90;;;;;;5112919;28;19924;-68
2023/04/19 04:28:04;;;;;;;;;;;5.30;99.90;;;;;;5094941;28;20069;-70
2023/04/19 04:30:30;;;;;;;;;;;5.30;99.90;;;;;;5094479;28;19931;-70
2023/04/19 04:32:58;;;;;;;;;;;5.30;99.90;;;;;;5094839;28;19924;-70
2023/04/19 04:35:25;;;;;;;;;;;5.20;99.90;;;;;;5094595;28;20371;-70
2023/04/19 04:37:52;;;;;;;;;;;5.20;99.90;;;;;;5094733;28;19924;-69
2023/04/19 04:40:18;;;;;;;;;;;5.20;99.90;;;;;;5113082;28;19974;-70
2023/04/19 04:42:44;;;;;;;;;;;5.20;99.90;;;;;;5112490;28;20669;-70
2023/04/19 04:45:10;;;;;;;;;;;6.50;99.90;;;;;;5112971;28;20007;-74
2023/04/19 04:47:36;;;;;;;;;;;5.20;99.90;;;;;;5112747;28;19924;-72
2023/04/19 04:50:02;;;;;;;;;;;5.10;99.90;;;;;;5093714;28;20401;-75
2023/04/19 04:52:27;;;;;;;;;;;5.10;99.90;;;;;;5112474;28;19924;-73
2023/04/19 04:54:53;;;;;;;;;;;5.10;99.90;;;;;;5093855;28;20019;-74
2023/04/19 04:57:19;;;;;;;;;;;5.00;99.90;;;;;;5111984;28;19923;-72
2023/04/19 04:59:46;;;;;;;;;;;5.00;99.90;;;;;;5094665;28;19938;-73
2023/04/19 05:02:15;;;;;;;;;;;5.40;99.90;;;;;;5112465;28;19986;-73
2023/04/19 05:04:41;;;;;;;;;;;5.00;99.90;;;;;;5112210;28;19959;-72
2023/04/19 05:07:06;;;;;;;;;;;5.00;99.90;;;;;;5094079;28;19967;-73
2023/04/19 05:09:32;;;;;;;;;;;6.00;99.90;;;;;;5098104;28;20014;-74
2023/04/19 05:11:58;;;;;;;;;;;5.00;99.90;;;;;;5097095;28;19919;-74
2023/04/19 05:14:23;;;;;;;;;;;5.00;99.90;;;;;;5116602;28;19963;-72
2023/04/19 05:16:49;;;;;;;;;;;5.10;99.90;;;;;;5098377;28;19935;-72
2023/04/19 05:19:14;;;;;;;;;;;5.10;99.90;;;;;;5097384;28;20410;-72
2023/04/19 05:21:40;;;;;;;;;;;5.10;99.90;;;;;;5097562;28;19923;-69
2023/04/19 05:24:05;;;;;;;;;;;5.20;99.90;;;;;;5116517;28;19930;-71
2023/04/19 05:26:31;;;;;;;;;;;5.20;99.90;;;;;;5115245;28;19992;-70
2023/04/19 05:28:57;;;;;;;;;;;5.20;99.90;;;;;;5115711;28;19924;-70
2023/04/19 05:31:23;;;;;;;;;;;5.20;99.90;;;;;;5116317;28;19947;-78
2023/04/19 05:33:48;;;;;;;;;;;5.20;99.90;;;;;;5097461;28;20382;-71
2023/04/19 05:36:14;;;;;;;;;;;5.30;99.90;;;;;;5094149;28;19924;-72
2023/04/19 05:38:39;;;;;;;;;;;5.50;99.90;;;;;;5131500;27;19923;-73
2023/04/19 05:41:05;;;;;;;;;;;5.40;99.90;;;;;;5149136;27;19971;-73
2023/04/19 05:43:30;;;;;;;;;;;5.60;99.90;;;;;;5098157;28;19919;-72
2023/04/19 05:45:56;;;;;;;;;;;5.50;99.90;;;;;;5114649;28;19924;-71
2023/04/19 05:48:21;;;;;;;;;;;5.50;99.90;;;;;;5096723;28;19924;-72
2023/04/19 05:50:47;;;;;;;;;;;5.60;99.90;;;;;;5097742;28;19926;-72
2023/04/19 05:53:13;;;;;;;;;;;5.80;99.90;;;;;;5096928;28;19930;-71
2023/04/19 05:55:39;;;;;;;;;;;5.70;99.90;;;;;;5115186;28;20405;-71
2023/04/19 05:58:07;;;;;;;;;;;6.10;99.90;;;;;;5096491;28;19928;-72
2023/04/19 06:00:33;;;;;;;;;;;5.80;99.90;;;;;;5092213;28;20389;-71
2023/04/19 06:02:58;;;;;;;;;;;5.90;99.90;;;;;;5096203;28;19924;-72
2023/04/19 06:05:24;;;;;;;;;;;5.90;99.90;;;;;;5115795;28;20020;-71
2023/04/19 06:07:49;;;;;;;;;;;6.00;99.90;;;;;;5096021;28;19931;-72
2023/04/19 06:10:15;;;;;;;;;;;6.10;99.90;;;;;;5114373;28;19928;-71
2023/04/19 06:12:40;;;;;;;;;;;6.10;99.90;;;;;;5113900;28;20010;-71
2023/04/19 06:15:06;;;;;;;;;;;6.20;99.90;;;;;;5110778;28;19931;-71
2023/04/19 06:17:31;;;;;;;;;;;6.30;99.90;;;;;;5111369;28;20370;-72
2023/04/19 06:19:57;;;;;;;;;;;6.30;99.90;;;;;;5094608;28;19924;-71
2023/04/19 06:22:22;;;;;;;;;;;6.40;99.90;;;;;;5113756;28;19924;-72
2023/04/19 06:24:48;;;;;;;;;;;6.50;99.90;;;;;;5095416;28;19926;-76
2023/04/19 06:27:15;;;;;;;;;;;7.00;99.90;;;;;;5113922;28;19935;-72
2023/04/19 06:29:40;;;;;;;;;;;6.60;99.90;;;;;;5114058;28;20442;-71
2023/04/19 06:32:06;;;;;;;;;;;6.70;99.90;;;;;;5115093;28;19985;-73
2023/04/19 06:34:31;;;;;;;;;;;6.80;99.90;;;;;;5097395;28;20031;-72
2023/04/19 06:36:57;;;;;;;;;;;6.90;99.90;;;;;;5096027;28;19920;-72
2023/04/19 06:39:22;;;;;;;;;;;7.00;99.90;;;;;;5115271;28;19969;-72
2023/04/19 06:41:48;;;;;;;;;;;7.40;99.90;;;;;;5115608;28;19924;-71
2023/04/19 06:44:14;;;;;;;;;;;7.10;99.90;;;;;;5113700;28;19986;-70
2023/04/19 06:46:39;;;;;;;;;;;7.10;99.90;;;;;;5113397;28;19923;-71
2023/04/19 06:49:05;;;;;;;;;;;7.20;99.90;;;;;;5111824;28;20019;-72
2023/04/19 06:51:31;;;;;;;;;;;7.20;99.90;;;;;;5095204;28;19955;-71
2023/04/19 06:53:57;;;;;;;;;;;7.30;99.90;;;;;;5095638;28;19931;-71
2023/04/19 06:56:44;;;;;;;;;;;7.40;99.90;;;;;;5095025;28;19924;-71
2023/04/19 06:59:10;;;;;;;;;;;7.40;99.90;;;;;;5113842;28;19924;-70
2023/04/19 07:01:35;;;;;;;;;;;7.50;99.90;;;;;;5096190;28;19928;-71
2023/04/19 07:04:01;;;;;;;;;;;7.50;99.90;;;;;;5094753;28;19927;-71
2023/04/19 07:06:26;;;;;;;;;;;8.00;99.90;;;;;;5114274;28;20329;-71
2023/04/19 07:08:52;;;;;;;;;;;8.10;99.90;;;;;;5095728;28;19931;-71
2023/04/19 07:11:17;;;;;;;;;;;7.80;99.90;;;;;;5113498;28;20437;-72
2023/04/19 07:13:43;;;;;;;;;;;8.20;99.90;;;;;;5095825;28;19923;-72
2023/04/19 07:16:09;;;;;;;;;;;8.10;99.90;;;;;;5113763;28;19976;-71
2023/04/19 07:18:34;;;;;;;;;;;8.40;99.90;;;;;;5095031;28;19931;-71
2023/04/19 07:21:00;;;;;;;;;;;9.20;99.90;;;;;;5114026;28;19923;-71
2023/04/19 07:23:25;;;;;;;;;;;10.30;99.90;;;;;;5114325;28;19924;-71
2023/04/19 07:25:51;;;;;;;;;;;11.40;99.90;;;;;;5095136;28;19931;-71
2023/04/19 07:28:16;;;;;;;;;;;12.30;99.00;;;;;;5113452;28;19923;-72
2023/04/19 07:30:44;;;;;;;;;;;13.10;95.50;;;;;;5095369;28;20337;-72
2023/04/19 07:33:10;;;;;;;;;;;13.20;94.30;;;;;;5113179;28;20366;-72
2023/04/19 07:35:37;;;;;;;;;;;13.70;94.60;;;;;;5114349;28;19924;-72
2023/04/19 07:38:03;;;;;;;;;;;14.20;93.10;;;;;;5095926;28;19931;-72
2023/04/19 07:40:28;;;;;;;;;;;14.30;92.20;;;;;;5094706;28;19923;-72
2023/04/19 07:42:54;;;;;;;;;;;14.50;92.10;;;;;;5095155;28;19930;-71
2023/04/19 07:45:20;;;;;;;;;;;14.90;90.50;;;;;;5095160;28;19976;-74
2023/04/19 07:47:45;;;;;;;;;;;15.20;90.40;;;;;;5095892;28;19924;-71
2023/04/19 07:50:11;;;;;;;;;;;15.70;90.20;;;;;;5113748;28;19923;-73
2023/04/19 07:52:36;;;;;;;;;;;15.90;90.10;;;;;;5113164;28;19923;-72
2023/04/19 07:55:02;;;;;;;;;;;15.90;84.10;;;;;;5113649;28;19923;-72
2023/04/19 07:57:28;;;;;;;;;;;15.80;80.40;;;;;;5095001;28;19924;-72
2023/04/19 07:59:56;;;;;;;;;;;15.90;82.40;;;;;;5112424;28;19932;-72
2023/04/19 08:02:24;;;;;;;;;;;16.10;84.90;;;;;;5112929;28;20153;-72
2023/04/19 08:04:50;;;;;;;;;;;15.90;84.00;;;;;;5095737;28;20283;-72
2023/04/19 08:07:16;;;;;;;;;;;16.30;83.00;;;;;;5113200;28;19931;-72
2023/04/19 08:09:42;;;;;;;;;;;16.50;80.60;;;;;;5095498;28;19973;-72
2023/04/19 08:12:07;;;;;;;;;;;16.30;82.10;;;;;;5113088;28;19931;-72
2023/04/19 08:14:33;;;;;;;;;;;16.30;82.00;;;;;;5094417;28;19977;-72
2023/04/19 08:16:58;;;;;;;;;;;16.50;79.50;;;;;;5095253;28;19930;-72
2023/04/19 08:19:24;;;;;;;;;;;17.00;81.20;;;;;;5113531;28;20287;-72
2023/04/19 08:21:49;;;;;;;;;;;17.30;81.80;;;;;;5094485;28;19949;-72
2023/04/19 08:24:15;;;;;;;;;;;17.30;80.70;;;;;;5112808;28;19932;-72
2023/04/19 08:26:41;;;;;;;;;;;17.50;76.40;;;;;;5113617;28;20398;-72
2023/04/19 08:29:06;;;;;;;;;;;17.80;79.10;;;;;;5094464;28;19923;-72
2023/04/19 08:31:32;;;;;;;;;;;17.90;78.30;;;;;;5113416;28;20359;-72
2023/04/19 08:33:59;;;;;;;;;;;17.90;76.60;;;;;;5112702;28;19928;-72
2023/04/19 08:36:25;;;;;;;;;;;17.70;77.70;;;;;;5112329;28;20264;-72
2023/04/19 08:38:51;;;;;;;;;;;18.00;76.00;;;;;;5113122;28;19924;-72
2023/04/19 08:41:17;;;;;;;;;;;17.70;75.30;;;;;;5094805;28;19930;-72
2023/04/19 08:43:44;;;;;;;;;;;17.80;74.90;;;;;;5097065;28;19923;-72
2023/04/19 08:46:10;;;;;;;;;;;17.30;73.50;;;;;;5117193;28;19977;-72
2023/04/19 08:48:36;;;;;;;;;;;17.70;75.80;;;;;;5116797;28;19923;-72
2023/04/19 08:51:02;;;;;;;;;;;17.40;72.90;;;;;;5116501;28;19931;-72
2023/04/19 08:53:28;;;;;;;;;;;17.50;73.80;;;;;;5098928;28;19994;-72
2023/04/19 08:55:57;;;;;;;;;;;17.70;74.00;;;;;;5098162;28;19931;-72
2023/04/19 08:58:24;;;;;;;;;;;18.10;76.90;;;;;;5117050;28;20002;-72
2023/04/19 09:00:50;;;;;;;;;;;18.40;74.80;;;;;;5098898;28;19983;-71
2023/04/19 09:03:15;;;;;;;;;;;19.00;74.00;;;;;;5098231;28;20022;-72
2023/04/19 09:05:44;;;;;;;;;;;18.20;70.60;;;;;;5098483;28;19931;-72
2023/04/19 09:08:28;;;;;;;;;;;18.10;72.80;;;;;;5116796;28;19931;-72
2023/04/19 09:10:58;;;;;;;;;;;18.10;72.90;;;;;;5097523;28;19930;-72
2023/04/19 09:13:24;;;;;;;;;;;18.40;75.20;;;;;;5098409;28;20009;-72
2023/04/19 09:15:50;;;;;;;;;;;18.60;75.20;;;;;;5116988;28;20290;-71
2023/04/19 09:18:16;;;;;;;;;;;18.70;74.10;;;;;;5097562;28;19923;-72
2023/04/19 09:20:42;;;;;;;;;;;18.60;72.00;;;;;;5116932;28;20006;-71
2023/04/19 09:23:12;;;;;;;;;;;18.60;72.70;;;;;;5098052;28;19924;-72
2023/04/19 09:25:39;;;;;;;;;;;18.60;72.40;;;;;;5116042;28;19935;-71
2023/04/19 09:28:09;;;;;;;;;;;18.60;73.20;;;;;;5098098;28;19959;-71
2023/04/19 09:30:34;;;;;;;;;;;19.00;73.90;;;;;;5116556;28;20008;-71
2023/04/19 09:33:00;;;;;;;;;;;18.90;72.40;;;;;;5115310;28;20401;-72
2023/04/19 09:35:47;;;;;;;;;;;19.00;70.20;;;;;;5116295;28;19928;-72
2023/04/19 09:38:12;;;;;;;;;;;18.90;70.60;;;;;;5115363;28;19947;-71
2023/04/19 09:40:38;;;;;;;;;;;18.90;70.20;;;;;;5098013;28;20379;-71
2023/04/19 09:43:07;;;;;;;;;;;18.60;70.10;;;;;;5097465;28;20394;-72
2023/04/19 09:45:43;;;;;;;;;;;18.80;72.10;;;;;;5115671;28;20290;-71
2023/04/19 09:48:09;;;;;;;;;;;18.70;70.60;;;;;;5097680;28;19924;-71
2023/04/19 09:50:35;;;;;;;;;;;18.90;72.30;;;;;;5098137;28;20140;-72
2023/04/19 09:53:01;;;;;;;;;;;18.90;70.30;;;;;;5097099;28;20260;-71
2023/04/19 09:55:27;;;;;;;;;;;19.00;72.30;;;;;;5096613;28;19924;-71
2023/04/19 09:57:52;;;;;;;;;;;18.90;71.40;;;;;;5115305;28;20462;-72
2023/04/19 10:00:20;;;;;;;;;;;19.40;75.10;;;;;;5096847;28;19927;-71
2023/04/19 10:02:53;;;;;;;;;;;19.80;75.90;;;;;;5115729;28;19927;-71
2023/04/19 10:05:20;;;;;;;;;;;20.20;74.80;;;;;;5116009;28;19920;-71
2023/04/19 10:07:45;;;;;;;;;;;20.60;76.20;;;;;;5096796;28;19927;-72
2023/04/19 10:10:11;;;;;;;;;;;20.60;73.90;;;;;;5115510;28;20284;-72
2023/04/19 10:12:37;;;;;;;;;;;20.60;77.80;;;;;;5097359;28;20307;-73
2023/04/19 10:15:02;;;;;;;;;;;20.20;77.00;;;;;;5095475;28;19924;-70
2023/04/19 10:17:31;;;;;;;;;;;20.70;77.00;;;;;;5096978;28;19923;-69
2023/04/19 10:20:00;;;;;;;;;;;20.80;77.30;;;;;;5096002;28;19924;-70
2023/04/19 10:22:26;;;;;;;;;;;20.50;76.50;;;;;;5096035;28;20015;-70
2023/04/19 10:25:11;;;;;;;;;;;20.50;77.30;;;;;;5114836;28;19920;-70
2023/04/19 10:27:37;;;;;;;;;;;20.40;76.50;;;;;;5114207;28;19931;-70
2023/04/19 10:30:06;;;;;;;;;;;20.60;78.30;;;;;;5096535;28;19962;-70
2023/04/19 10:32:39;;;;;;;;;;;20.60;78.70;;;;;;5096474;28;19924;-70
2023/04/19 10:35:08;;;;;;;;;;;20.60;76.70;;;;;;5095375;28;19969;-71
2023/04/19 10:37:38;;;;;;;;;;;20.60;77.40;;;;;;5114380;28;19987;-69
2023/04/19 10:40:04;;;;;;;;;;;20.10;75.60;;;;;;5096022;28;19923;-71
2023/04/19 10:42:48;;;;;;;;;;;20.30;76.50;;;;;;5112536;28;20436;-69
2023/04/19 10:45:33;;;;;;;;;;;20.50;77.60;;;;;;5110921;28;19949;-69
2023/04/19 10:48:01;;;;;;;;;;;20.20;77.90;;;;;;5096891;27;19924;-74
2023/04/19 10:50:26;;;;;;;;;;;20.20;77.10;;;;;;5113650;28;19924;-75
2023/04/19 10:52:52;;;;;;;;;;;20.20;77.40;;;;;;5095706;28;19938;-72
2023/04/19 10:55:18;;;;;;;;;;;19.60;76.40;;;;;;5095615;28;19930;-74
2023/04/19 10:58:01;;;;;;;;;;;19.90;75.20;;;;;;5113931;28;19924;-73
2023/04/19 11:00:30;;;;;;;;;;;20.00;76.10;;;;;;5095791;28;19924;-74
2023/04/19 11:02:55;;;;;;;;;;;20.20;76.70;;;;;;5092368;28;19927;-74
2023/04/19 11:05:21;;;;;;;;;;;20.00;76.20;;;;;;5114012;28;19976;-73
2023/04/19 11:07:46;;;;;;;;;;;20.00;75.80;;;;;;5114291;28;20040;-74
2023/04/19 11:10:12;;;;;;;;;;;19.90;74.20;;;;;;5113228;28;19923;-74
2023/04/19 11:12:41;;;;;;;;;;;19.70;75.80;;;;;;5096057;28;19923;-74
2023/04/19 11:15:08;;;;;;;;;;;19.60;76.20;;;;;;5095590;28;19976;-74
2023/04/19 11:17:36;;;;;;;;;;;19.90;76.00;;;;;;5094818;28;19931;-73
2023/04/19 11:20:06;;;;;;;;;;;19.90;74.70;;;;;;5113526;28;19968;-73
2023/04/19 11:22:32;;;;;;;;;;;19.70;74.90;;;;;;5113633;28;20375;-74
2023/04/19 11:25:11;;;;;;;;;;;19.70;74.80;;;;;;5113520;28;20276;-74
2023/04/19 11:27:37;;;;;;;;;;;19.50;72.10;;;;;;5114544;28;19967;-74
2023/04/19 11:30:07;;;;;;;;;;;19.60;73.50;;;;;;5095778;28;19980;-74
2023/04/19 11:32:33;;;;;;;;;;;19.30;73.30;;;;;;5095226;28;20022;-73
2023/04/19 11:35:07;;;;;;;;;;;19.40;75.30;;;;;;5095846;28;19931;-74
2023/04/19 11:37:36;;;;;;;;;;;19.20;75.60;;;;;;5094757;28;20073;-73
2023/04/19 11:40:01;;;;;;;;;;;19.30;72.60;;;;;;5095431;28;19924;-74
2023/04/19 11:42:27;;;;;;;;;;;19.00;73.80;;;;;;5095913;28;20274;-73
2023/04/19 11:44:53;;;;;;;;;;;19.20;74.10;;;;;;5094999;28;19927;-74
2023/04/19 11:47:19;;;;;;;;;;;19.20;72.70;;;;;;5095589;28;19924;-74
2023/04/19 11:49:45;;;;;;;;;;;19.40;74.00;;;;;;5114031;28;20018;-74
2023/04/19 11:52:10;;;;;;;;;;;19.10;73.20;;;;;;5112735;28;19927;-74
2023/04/19 11:54:36;;;;;;;;;;;19.30;75.80;;;;;;5095528;28;19928;-72
2023/04/19 11:57:03;;;;;;;;;;;19.20;70.50;;;;;;5095356;28;19923;-72
2023/04/19 11:59:29;;;;;;;;;;;18.70;70.70;;;;;;5113100;28;19930;-71
2023/04/19 12:01:54;;;;;;;;;;;18.10;72.70;;;;;;5113389;28;20436;-72
2023/04/19 12:04:20;;;;;;;;;;;18.20;74.80;;;;;;5095384;28;19923;-72
2023/04/19 12:06:54;;;;;;;;;;;18.50;74.10;;;;;;5112859;28;19924;-72
2023/04/19 12:09:21;;;;;;;;;;;18.60;73.00;;;;;;5095356;28;19923;-72
2023/04/19 12:11:50;;;;;;;;;;;18.50;75.60;;;;;;5095534;28;19919;-72
2023/04/19 12:14:18;;;;;;;;;;;18.40;75.20;;;;;;5094375;28;19928;-72
2023/04/19 12:16:44;;;;;;;;;;;18.50;75.90;;;;;;5113500;28;20007;-72
2023/04/19 12:19:13;;;;;;;;;;;18.60;75.80;;;;;;5094258;28;20034;-72
2023/04/19 12:21:39;;;;;;;;;;;18.50;74.70;;;;;;5112741;28;19927;-72
2023/04/19 12:24:04;;;;;;;;;;;18.50;76.60;;;;;;5113279;28;19924;-72
2023/04/19 12:26:30;;;;;;;;;;;18.60;77.70;;;;;;5113575;28;19928;-72
2023/04/19 12:28:56;;;;;;;;;;;18.70;76.10;;;;;;5093976;28;20365;-72
2023/04/19 12:31:22;;;;;;;;;;;18.60;77.60;;;;;;5113518;28;19973;-72
2023/04/19 12:33:48;;;;;;;;;;;18.50;78.70;;;;;;5112817;28;19967;-72
2023/04/19 12:36:13;;;;;;;;;;;18.40;77.60;;;;;;5094651;28;20007;-72
2023/04/19 12:38:39;;;;;;;;;;;18.30;78.50;;;;;;5094889;28;20040;-72
2023/04/19 12:41:05;;;;;;;;;;;18.10;77.90;;;;;;5111786;28;19928;-73
2023/04/19 12:43:31;;;;;;;;;;;18.10;77.60;;;;;;5113144;28;19927;-71
2023/04/19 12:45:57;;;;;;;;;;;17.80;79.50;;;;;;5094283;28;20006;-71
2023/04/19 12:48:23;;;;;;;;;;;17.60;82.30;;;;;;5093610;28;19931;-70
2023/04/19 12:50:48;;;;;;;;;;;17.40;82.30;;;;;;5095023;28;19924;-71
2023/04/19 12:53:14;;;;;;;;;;;17.10;83.90;;;;;;5112960;28;19924;-71
2023/04/19 12:55:40;;;;;;;;;;;17.30;83.00;;;;;;5091686;28;19930;-70
2023/04/19 12:58:06;;;;;;;;;;;17.20;85.30;;;;;;5108123;28;20015;-71
2023/04/19 13:00:31;;;;;;;;;;;17.00;82.10;;;;;;5087023;28;19927;-71
2023/04/19 13:02:57;;;;;;;;;;;16.80;82.50;;;;;;5093989;28;19977;-69
2023/04/19 13:05:22;;;;;;;;;;;16.70;82.50;;;;;;5094441;28;19977;-70
2023/04/19 13:07:51;;;;;;;;;;;16.50;84.30;;;;;;5094658;28;20282;-70
2023/04/19 13:10:16;;;;;;;;;;;16.50;84.10;;;;;;5093544;28;19924;-72
2023/04/19 13:12:42;;;;;;;;;;;16.40;84.30;;;;;;5112811;28;19946;-71
2023/04/19 13:15:08;;;;;;;;;;;16.50;84.00;;;;;;5094317;28;20021;-71
2023/04/19 13:17:36;;;;;;;;;;;16.30;83.50;;;;;;5112101;28;20298;-71
2023/04/19 13:20:02;;;;;;;;;;;16.30;85.30;;;;;;5111289;28;19931;-74
2023/04/19 13:22:27;;;;;;;;;;;16.40;83.60;;;;;;5111506;28;19928;-73
2023/04/19 13:24:53;;;;;;;;;;;16.20;81.40;;;;;;5111008;28;19931;-71
2023/04/19 13:27:19;;;;;;;;;;;15.90;84.30;;;;;;5093952;28;19931;-72
2023/04/19 13:29:45;;;;;;;;;;;16.10;82.60;;;;;;5114468;28;19985;-71
2023/04/19 13:32:11;;;;;;;;;;;15.90;86.10;;;;;;5096679;28;20459;-71
2023/04/19 13:34:37;;;;;;;;;;;15.90;85.10;;;;;;5097411;28;20426;-75
2023/04/19 13:37:03;;;;;;;;;;;16.00;83.70;;;;;;5095949;28;19943;-72
2023/04/19 13:39:28;;;;;;;;;;;16.00;84.10;;;;;;5115614;28;19928;-72
2023/04/19 13:41:57;;;;;;;;;;;15.90;84.50;;;;;;5115728;28;19924;-72
2023/04/19 13:44:24;;;;;;;;;;;15.80;85.70;;;;;;5114565;28;20294;-71
2023/04/19 13:46:49;;;;;;;;;;;15.90;87.20;;;;;;5115704;28;20379;-72
2023/04/19 13:49:16;;;;;;;;;;;15.80;86.50;;;;;;5115016;28;19977;-71
2023/04/19 13:51:41;;;;;;;;;;;15.60;83.70;;;;;;5096569;28;20301;-71
2023/04/19 13:54:07;;;;;;;;;;;15.40;85.30;;;;;;5115206;28;20023;-74
2023/04/19 13:56:32;;;;;;;;;;;15.50;88.00;;;;;;5097392;28;19924;-79
2023/04/19 13:58:58;;;;;;;;;;;15.70;88.10;;;;;;5092853;28;20371;-73
2023/04/19 14:01:23;;;;;;;;;;;15.80;89.00;;;;;;5114543;28;19924;-73
2023/04/19 14:03:49;;;;;;;;;;;15.70;89.60;;;;;;5096914;28;19924;-73
2023/04/19 14:06:15;;;;;;;;;;;15.70;89.20;;;;;;5096123;28;20408;-72
2023/04/19 14:08:41;;;;;;;;;;;15.70;90.00;;;;;;5096950;28;20000;-73
2023/04/19 14:11:06;;;;;;;;;;;15.60;90.20;;;;;;5114722;28;20270;-73
2023/04/19 14:13:32;;;;;;;;;;;15.70;90.50;;;;;;5095842;28;19924;-75
2023/04/19 14:15:57;;;;;;;;;;;15.70;90.70;;;;;;5099060;27;19923;-74
2023/04/19 14:18:23;;;;;;;;;;;15.60;89.80;;;;;;5114749;27;19987;-72